Time;durP1;ratioP1;P1;durP2;ratioP2;P2;SDS_P1;SDS_P2;PMS_P1;PMS_P2;Temp;Humidity;BMP_temperature;BMP_pressure;BME280_temperature;BME280_humidity;BME280_pressure;Samples;Min_cycle;Max_cycle;Signal;HPM_P1;HPM_P2
2022/09/03 00:00:04;;;;;;;;;2.33;1.67;;;;;22.16;47.92;98694.81;4875204;28;102359;-84
2022/09/03 00:02:45;;;;;;;;;1.67;1.67;;;;;22.17;47.92;98701.16;4890089;28;102269;-84
2022/09/03 00:05:17;;;;;;;;;2.33;2.00;;;;;22.16;48.00;98697.56;4895653;28;102488;-84
2022/09/03 00:07:56;;;;;;;;;1.67;1.67;;;;;22.15;47.95;98704.16;4893339;28;109365;-84
2022/09/03 00:10:40;;;;;;;;;2.00;2.00;;;;;22.15;48.24;98698.66;4888005;28;102460;-84
2022/09/03 00:13:07;;;;;;;;;2.00;1.00;;;;;22.15;48.04;98690.38;4877289;28;102423;-84
2022/09/03 00:15:34;;;;;;;;;2.00;1.67;;;;;22.14;48.21;98690.69;4894543;28;102359;-84
2022/09/03 00:18:06;;;;;;;;;1.67;1.67;;;;;22.13;48.23;98692.63;4893618;28;104123;-84
2022/09/03 00:20:40;;;;;;;;;2.67;2.33;;;;;22.14;47.98;98696.19;4894193;28;102409;-84
2022/09/03 00:23:09;;;;;;;;;2.33;2.33;;;;;22.12;48.25;98687.38;4871024;28;102572;-84
2022/09/03 00:25:49;;;;;;;;;1.00;1.00;;;;;22.12;48.12;98685.44;4895838;28;102586;-84
2022/09/03 00:28:29;;;;;;;;;1.33;1.33;;;;;22.12;48.04;98679.09;4894919;28;109218;-83
2022/09/03 00:31:27;;;;;;;;;2.00;2.00;;;;;22.10;48.23;98676.66;4877927;28;104139;-84
2022/09/03 00:34:01;;;;;;;;;2.67;1.67;;;;;22.11;47.93;98669.22;4888781;28;103371;-84
2022/09/03 00:36:41;;;;;;;;;2.00;1.00;;;;;22.09;48.36;98674.97;4894294;28;102336;-84
2022/09/03 00:39:13;;;;;;;;;1.00;1.00;;;;;22.09;48.28;98668.66;4877641;28;104233;-84
2022/09/03 00:42:08;;;;;;;;;2.67;1.67;;;;;22.08;48.28;98669.75;4894846;28;102476;-84
2022/09/03 00:44:54;;;;;;;;;2.00;1.67;;;;;22.06;48.27;98671.94;4892021;28;103466;-84
2022/09/03 00:47:48;;;;;;;;;1.00;1.00;;;;;22.06;48.10;98675.53;4891103;28;102549;-84
2022/09/03 00:50:34;;;;;;;;;2.67;2.67;;;;;22.06;48.59;98672.78;4892005;28;108966;-84
2022/09/03 00:53:16;;;;;;;;;1.67;1.67;;;;;22.05;48.31;98671.13;4895356;28;102272;-84
2022/09/03 00:55:48;;;;;;;;;1.33;0.67;;;;;22.05;48.55;98667.53;4889005;28;102619;-84
2022/09/03 00:58:33;;;;;;;;;1.67;1.67;;;;;22.04;48.13;98671.38;4892834;28;102621;-84
2022/09/03 01:01:14;;;;;;;;;1.67;0.67;;;;;22.04;48.11;98671.38;4890165;28;108841;-84
2022/09/03 01:04:00;;;;;;;;;1.33;1.33;;;;;22.04;48.55;98671.38;4864921;28;103446;-84
2022/09/03 01:06:52;;;;;;;;;1.67;1.67;;;;;22.02;48.39;98666.16;4888573;28;102458;-84
2022/09/03 01:09:53;;;;;;;;;1.67;1.67;;;;;22.02;48.37;98671.66;4879310;28;102367;-84
2022/09/03 01:13:04;;;;;;;;;3.00;3.00;;;;;22.02;48.53;98674.41;4892973;28;108782;-85
2022/09/03 01:16:00;;;;;;;;;1.33;1.33;;;;;22.01;48.11;98674.69;4890560;28;102681;-85
2022/09/03 01:19:12;;;;;;;;;1.67;1.67;;;;;21.99;48.47;98671.38;4892979;28;102372;-84
2022/09/03 01:22:19;;;;;;;;;3.00;1.67;;;;;21.99;48.25;98683.22;4887765;28;102578;-83
2022/09/03 01:25:30;;;;;;;;;0.67;0.67;;;;;21.97;48.51;98673.59;4889237;28;108413;-84
2022/09/03 01:28:12;;;;;;;;;0.67;0.67;;;;;21.97;48.26;98679.94;4887575;28;104309;-84
2022/09/03 01:30:41;;;;;;;;;1.00;1.00;;;;;21.97;48.24;98673.59;4894737;28;102143;-84
2022/09/03 01:33:11;;;;;;;;;0.67;0.67;;;;;21.96;48.33;98683.78;4875289;28;102236;-84
2022/09/03 01:35:47;;;;;;;;;1.67;1.67;;;;;21.95;48.21;98690.38;4894189;28;104090;-84
2022/09/03 01:38:46;;;;;;;;;1.67;0.67;;;;;21.94;48.64;98688.72;4894431;28;102407;-84
2022/09/03 01:44:20;;;;;;;;;1.33;1.33;;;;;21.94;48.23;98685.13;4893741;28;103342;-84
2022/09/03 01:46:49;;;;;;;;;0.67;0.67;;;;;21.93;48.15;98687.06;4889387;28;108986;-83
2022/09/03 01:49:43;;;;;;;;;0.67;0.67;;;;;21.93;48.43;98689.81;4894226;28;103694;-82
2022/09/03 01:52:16;;;;;;;;;0.67;0.67;;;;;21.93;48.29;98689.81;4881456;28;102101;-84
2022/09/03 01:55:04;;;;;;;;;1.33;1.33;;;;;21.92;48.49;98690.91;4907846;28;102531;-84
2022/09/03 01:57:44;;;;;;;;;2.67;1.67;;;;;21.90;48.62;98690.34;4889799;28;108648;-84
2022/09/03 02:00:18;;;;;;;;;1.00;0.67;;;;;21.90;48.50;98693.09;4891033;28;102647;-84
2022/09/03 02:02:47;;;;;;;;;2.00;2.00;;;;;21.90;48.48;98690.34;4890183;28;102584;-84
2022/09/03 02:05:23;;;;;;;;;1.67;1.67;;;;;21.88;48.69;98689.78;4896392;28;102236;-84
2022/09/03 02:08:01;;;;;;;;;1.00;1.00;;;;;21.88;48.58;98687.03;4892529;28;108874;-84
2022/09/03 02:10:46;;;;;;;;;1.33;1.33;;;;;21.89;48.40;98682.34;4895925;28;102339;-84
2022/09/03 02:13:17;;;;;;;;;1.00;1.00;;;;;21.88;48.66;98681.53;4894650;28;102649;-84
2022/09/03 02:15:45;;;;;;;;;1.00;1.00;;;;;21.86;48.54;98672.69;4884645;28;102668;-84
2022/09/03 02:18:21;;;;;;;;;0.67;0.67;;;;;21.88;48.66;98684.28;4891681;28;112543;-84
2022/09/03 02:20:48;;;;;;;;;1.67;1.67;;;;;21.87;48.54;98690.88;4891508;28;102324;-84
2022/09/03 02:23:15;;;;;;;;;1.67;1.67;;;;;21.86;48.62;98691.97;4911676;28;103297;-84
2022/09/03 02:25:44;;;;;;;;;2.00;1.00;;;;;21.85;48.66;98690.31;4896401;28;102460;-84
2022/09/03 02:28:13;;;;;;;;;0.67;0.67;;;;;21.86;48.36;98688.38;4892769;28;108753;-84
2022/09/03 02:30:43;;;;;;;;;0.67;0.67;;;;;21.85;48.52;98687.56;4890616;28;102258;-84
2022/09/03 02:33:10;;;;;;;;;0.67;0.67;;;;;21.85;48.63;98686.72;4894236;28;102424;-84
2022/09/03 02:35:39;;;;;;;;;3.00;2.00;;;;;21.85;48.71;98693.06;4893832;28;102556;-84
2022/09/03 02:38:20;;;;;;;;;1.00;1.00;;;;;21.84;48.33;98699.66;4890467;28;104071;-84
2022/09/03 02:40:47;;;;;;;;;1.00;1.00;;;;;21.85;48.80;98692.25;4893237;28;101987;-84
2022/09/03 02:43:17;;;;;;;;;1.50;1.50;;;;;21.83;48.23;98694.44;4892443;28;102489;-84
2022/09/03 02:45:46;;;;;;;;;1.00;1.00;;;;;21.80;48.30;98695.81;4890358;28;102667;-84
2022/09/03 02:48:16;;;;;;;;;0.00;0.00;;;;;21.79;48.54;98689.47;4891353;28;110002;-84
2022/09/03 02:50:42;;;;;;;;;1.67;0.67;;;;;21.80;48.42;98691.13;4889967;28;102975;-84
2022/09/03 02:53:09;;;;;;;;;0.67;0.67;;;;;21.80;48.52;98690.28;4893779;28;102292;-84
2022/09/03 02:55:36;;;;;;;;;1.67;1.67;;;;;21.81;48.50;98694.72;4892494;28;102106;-84
2022/09/03 02:58:05;;;;;;;;;0.67;0.67;;;;;21.80;48.59;98696.63;4892839;28;104499;-85
2022/09/03 03:00:32;;;;;;;;;1.67;1.00;;;;;21.80;48.76;98701.31;4891748;28;102978;-84
2022/09/03 03:02:59;;;;;;;;;2.67;1.67;;;;;21.79;48.69;98699.69;4890496;28;102439;-84
2022/09/03 03:05:32;;;;;;;;;0.67;0.67;;;;;21.79;48.57;98694.97;4892579;28;102514;-84
2022/09/03 03:08:00;;;;;;;;;0.67;0.67;;;;;21.79;48.47;98700.47;4892031;28;104135;-84
2022/09/03 03:10:27;;;;;;;;;1.00;1.00;;;;;21.79;48.33;98696.94;4895346;28;102228;-84
2022/09/03 03:12:54;;;;;;;;;1.00;1.00;;;;;21.77;48.67;98694.44;4897974;28;102370;-84
2022/09/03 03:15:21;;;;;;;;;1.00;0.67;;;;;21.76;48.76;98701.03;4896381;28;102728;-84
2022/09/03 03:17:48;;;;;;;;;0.00;0.00;;;;;21.77;48.18;98693.59;4895666;28;104047;-83
2022/09/03 03:20:15;;;;;;;;;0.67;0.67;;;;;21.75;48.49;98691.13;4898877;28;102367;-84
2022/09/03 03:22:42;;;;;;;;;0.67;0.67;;;;;21.74;48.55;98692.22;4894859;28;102501;-84
2022/09/03 03:25:09;;;;;;;;;1.33;0.67;;;;;21.73;48.54;98698.81;4898076;28;102498;-84
2022/09/03 03:27:38;;;;;;;;;1.67;1.67;;;;;21.72;48.72;98697.16;4895741;28;104221;-84
2022/09/03 03:30:08;;;;;;;;;0.67;0.67;;;;;21.73;48.82;98700.75;4896393;28;102391;-84
2022/09/03 03:32:36;;;;;;;;;1.00;0.67;;;;;21.72;48.53;98697.16;4891969;28;102956;-84
2022/09/03 03:35:03;;;;;;;;;0.67;0.00;;;;;21.73;48.85;98703.50;4895884;28;102640;-84
2022/09/03 03:37:30;;;;;;;;;0.67;0.67;;;;;21.73;48.52;98711.75;4889885;28;104143;-84
2022/09/03 03:39:57;;;;;;;;;0.67;0.33;;;;;21.72;48.41;98715.59;4894882;28;109951;-84
2022/09/03 03:42:24;;;;;;;;;0.67;0.67;;;;;21.72;48.86;98710.09;4897682;28;102505;-84
2022/09/03 03:44:51;;;;;;;;;2.00;2.00;;;;;21.71;48.46;98708.44;4887774;28;102580;-84
2022/09/03 03:47:18;;;;;;;;;0.67;0.67;;;;;21.70;48.29;98707.59;4898608;28;104107;-84
2022/09/03 03:49:45;;;;;;;;;1.67;1.67;;;;;21.70;48.83;98713.13;4896007;28;102531;-84
2022/09/03 03:52:12;;;;;;;;;1.00;1.00;;;;;21.70;48.42;98707.59;4897442;28;102349;-84
2022/09/03 03:54:39;;;;;;;;;0.67;0.67;;;;;21.69;48.43;98705.16;4893760;28;102480;-84
2022/09/03 03:57:06;;;;;;;;;0.67;0.67;;;;;21.70;48.57;98704.06;4893640;28;104219;-84
2022/09/03 03:59:33;;;;;;;;;0.67;0.67;;;;;21.69;48.79;98705.97;4893699;28;102563;-84
2022/09/03 04:01:59;;;;;;;;;1.00;1.00;;;;;21.67;48.78;98704.56;4894079;28;103712;-84
2022/09/03 04:04:27;;;;;;;;;1.33;1.33;;;;;21.67;48.70;98699.06;4891490;28;103005;-84
2022/09/03 04:06:54;;;;;;;;;0.67;0.67;;;;;21.67;48.54;98701.81;4892295;28;104014;-84
2022/09/03 04:09:21;;;;;;;;;0.67;0.67;;;;;21.67;48.59;98701.81;4894407;28;102228;-84
2022/09/03 04:11:49;;;;;;;;;1.00;1.00;;;;;21.64;48.87;98696.88;4900113;28;102648;-84
2022/09/03 04:14:19;;;;;;;;;2.00;1.00;;;;;21.62;48.81;98688.88;4894072;28;102292;-85
2022/09/03 04:16:46;;;;;;;;;0.00;0.00;;;;;21.63;48.45;98690.53;4894487;28;108819;-84
2022/09/03 04:19:13;;;;;;;;;1.33;1.00;;;;;21.63;49.05;98690.53;4893127;28;102382;-84
2022/09/03 04:21:40;;;;;;;;;0.67;0.67;;;;;21.62;48.72;98679.78;4895631;28;102981;-84
2022/09/03 04:24:07;;;;;;;;;1.00;1.00;;;;;21.64;48.77;98685.84;4895579;28;103104;-84
2022/09/03 04:26:34;;;;;;;;;0.67;0.67;;;;;21.62;49.03;98690.78;4888955;28;104191;-84
2022/09/03 04:29:08;;;;;;;;;0.33;0.33;;;;;21.62;48.70;98693.53;4879230;28;102632;-84
2022/09/03 04:31:35;;;;;;;;;0.00;0.00;;;;;21.62;49.15;98694.38;4893018;28;102123;-84
2022/09/03 04:34:05;;;;;;;;;0.67;0.00;;;;;21.60;48.70;98688.34;4893465;28;102144;-84
2022/09/03 04:36:33;;;;;;;;;0.67;0.67;;;;;21.62;48.64;98693.53;4886217;28;104203;-84
2022/09/03 04:39:00;;;;;;;;;0.67;0.67;;;;;21.60;48.98;98696.59;4891800;28;102987;-84
2022/09/03 04:41:28;;;;;;;;;0.67;0.67;;;;;21.60;48.71;98706.75;4884539;28;102253;-84
2022/09/03 04:43:57;;;;;;;;;2.00;1.33;;;;;21.60;48.48;98701.25;4896513;28;102101;-84
2022/09/03 04:46:25;;;;;;;;;0.67;0.67;;;;;21.59;48.81;98708.69;4888375;28;104047;-84
2022/09/03 04:48:53;;;;;;;;;0.00;0.00;;;;;21.59;49.07;98708.69;4894667;28;102388;-83
2022/09/03 04:51:26;;;;;;;;;0.67;0.67;;;;;21.58;49.14;98707.03;4893257;28;102724;-84
2022/09/03 04:53:55;;;;;;;;;1.00;0.67;;;;;21.58;48.66;98711.69;4889579;28;102590;-83
2022/09/03 04:56:24;;;;;;;;;0.67;0.67;;;;;21.57;48.78;98713.63;4884831;28;104169;-83
2022/09/03 04:58:56;;;;;;;;;0.00;0.00;;;;;21.58;48.99;98726.28;4893450;28;103630;-84
2022/09/03 05:01:24;;;;;;;;;1.67;1.67;;;;;21.58;48.88;98726.28;4890374;28;102622;-84
2022/09/03 05:03:53;;;;;;;;;0.67;0.67;;;;;21.57;48.74;98721.06;4902719;28;102534;-84
2022/09/03 05:06:20;;;;;;;;;0.67;0.67;;;;;21.56;49.04;98723.00;4894312;28;104077;-84
2022/09/03 05:08:47;;;;;;;;;0.00;0.00;;;;;21.57;49.20;98726.56;4895073;28;102467;-84
2022/09/03 05:11:15;;;;;;;;;0.33;0.33;;;;;21.56;49.02;98722.16;4889785;28;106648;-84
2022/09/03 05:13:47;;;;;;;;;0.33;0.00;;;;;21.56;49.05;98731.25;4896357;28;102354;-84
2022/09/03 05:16:14;;;;;;;;;1.00;1.00;;;;;21.56;49.09;98722.16;4892444;28;104306;-84
2022/09/03 05:18:41;;;;;;;;;1.00;0.00;;;;;21.56;49.04;98722.16;4891299;28;102546;-84
2022/09/03 05:21:10;;;;;;;;;0.00;0.00;;;;;21.55;49.08;98721.34;4895899;28;102746;-84
2022/09/03 05:23:38;;;;;;;;;0.67;0.33;;;;;21.56;48.66;98724.91;4895775;28;102573;-84
2022/09/03 05:26:09;;;;;;;;;1.33;1.00;;;;;21.55;48.77;98732.34;4893110;28;104090;-84
2022/09/03 05:28:37;;;;;;;;;0.00;0.00;;;;;21.54;48.98;98727.09;4891359;28;103426;-84
2022/09/03 05:31:09;;;;;;;;;0.67;0.67;;;;;21.55;48.62;98726.00;4890178;28;102227;-84
2022/09/03 05:33:37;;;;;;;;;0.33;0.33;;;;;21.54;49.12;98729.84;4893206;28;102360;-84
2022/09/03 05:36:06;;;;;;;;;0.33;0.33;;;;;21.53;49.54;98730.94;4889560;28;104328;-83
2022/09/03 05:38:33;;;;;;;;;0.67;0.67;;;;;21.53;49.23;98733.69;4892681;28;102735;-84
2022/09/03 05:41:03;;;;;;;;;0.00;0.00;;;;;21.53;49.07;98734.50;4885385;28;102444;-84
2022/09/03 05:43:30;;;;;;;;;0.00;0.00;;;;;21.53;48.89;98739.19;4893874;28;102322;-84
2022/09/03 05:46:00;;;;;;;;;1.00;0.67;;;;;21.52;48.96;98740.31;4890757;28;104072;-84
2022/09/03 05:48:31;;;;;;;;;0.67;0.67;;;;;21.51;49.07;98724.88;4891299;28;102406;-84
2022/09/03 05:51:09;;;;;;;;;1.00;1.00;;;;;21.51;48.89;98730.41;4895894;28;102525;-84
2022/09/03 05:53:37;;;;;;;;;0.33;0.33;;;;;21.52;49.24;98726.56;4883447;28;103382;-84
2022/09/03 05:56:06;;;;;;;;;0.67;0.67;;;;;21.51;48.92;98724.88;4893817;28;104805;-84
2022/09/03 05:58:34;;;;;;;;;0.00;0.00;;;;;21.52;48.86;98723.81;4885704;28;102247;-84
2022/09/03 06:01:12;;;;;;;;;1.00;0.33;;;;;21.50;49.09;98723.22;4892390;28;102303;-84
2022/09/03 06:03:40;;;;;;;;;0.67;0.67;;;;;21.51;48.88;98722.13;4892807;28;102407;-84
2022/09/03 06:06:07;;;;;;;;;0.67;0.67;;;;;21.50;49.30;98728.72;4890595;28;104250;-84
2022/09/03 06:08:34;;;;;;;;;0.00;0.00;;;;;21.50;49.29;98725.97;4888454;28;102880;-84
2022/09/03 06:11:04;;;;;;;;;0.00;0.00;;;;;21.48;49.27;98720.72;4891432;28;102480;-84
2022/09/03 06:13:32;;;;;;;;;0.33;0.33;;;;;21.50;48.81;98721.31;4897233;28;102722;-84
2022/09/03 06:16:00;;;;;;;;;0.00;0.00;;;;;21.50;49.04;98728.72;4894622;28;104569;-84
2022/09/03 06:18:27;;;;;;;;;1.00;1.00;;;;;21.48;48.98;98720.72;4895182;28;102976;-84
2022/09/03 06:20:55;;;;;;;;;0.33;0.33;;;;;21.49;49.24;98729.81;4893977;28;102444;-84
2022/09/03 06:23:22;;;;;;;;;1.00;1.00;;;;;21.49;48.92;98727.91;4893367;28;102610;-83
2022/09/03 06:26:00;;;;;;;;;0.67;0.67;;;;;21.48;49.10;98726.22;4892493;28;103772;-84
2022/09/03 06:28:35;;;;;;;;;0.33;0.33;;;;;21.47;48.78;98723.78;4888961;28;102380;-83
2022/09/03 06:31:04;;;;;;;;;0.00;0.00;;;;;21.48;48.77;98725.44;4893554;28;102506;-84
2022/09/03 06:33:32;;;;;;;;;0.33;0.00;;;;;21.49;49.10;98721.56;4891773;28;102381;-84
2022/09/03 06:36:00;;;;;;;;;1.00;1.00;;;;;21.47;48.95;98719.09;4887993;28;104249;-84
2022/09/03 06:38:32;;;;;;;;;0.67;0.33;;;;;21.49;48.89;98732.56;4891209;28;102556;-84
2022/09/03 06:41:02;;;;;;;;;0.67;0.67;;;;;21.48;48.91;98731.75;4888948;28;103748;-84
2022/09/03 06:43:30;;;;;;;;;0.67;0.67;;;;;21.48;48.59;98731.75;4890777;28;103744;-84
2022/09/03 06:46:02;;;;;;;;;0.00;0.00;;;;;21.47;49.27;98730.09;4895175;28;104093;-84
2022/09/03 06:48:30;;;;;;;;;0.00;0.00;;;;;21.47;48.86;98724.59;4892338;28;102259;-84
2022/09/03 06:51:04;;;;;;;;;0.33;0.33;;;;;21.48;48.92;98730.94;4893962;28;108329;-84
2022/09/03 06:53:35;;;;;;;;;1.00;1.00;;;;;21.47;49.40;98738.38;4895855;28;102437;-84
2022/09/03 06:56:03;;;;;;;;;0.67;0.67;;;;;21.48;49.29;98736.44;4895759;28;104249;-84
2022/09/03 06:58:37;;;;;;;;;0.67;0.67;;;;;21.48;49.34;98741.94;4895352;28;102591;-84
2022/09/03 07:01:06;;;;;;;;;0.00;0.00;;;;;21.49;49.09;98743.56;4896178;28;102578;-84
2022/09/03 07:03:36;;;;;;;;;0.67;0.67;;;;;21.47;49.36;98743.03;4894350;28;102550;-84
2022/09/03 07:06:07;;;;;;;;;1.00;1.00;;;;;21.48;49.40;98744.69;4890781;28;104237;-84
2022/09/03 07:08:34;;;;;;;;;0.33;0.33;;;;;21.50;49.47;98756.25;4895454;28;103274;-84
2022/09/03 07:11:04;;;;;;;;;1.00;0.00;;;;;21.50;48.90;98754.31;4910653;28;102498;-84
2022/09/03 07:13:32;;;;;;;;;0.67;0.67;;;;;21.49;49.18;98749.06;4904404;28;102345;-84
2022/09/03 07:16:00;;;;;;;;;0.00;0.00;;;;;21.51;49.22;98752.41;4890840;28;104326;-84
2022/09/03 07:18:27;;;;;;;;;0.67;0.67;;;;;21.51;49.44;98752.41;4897897;28;102266;-84
2022/09/03 07:21:01;;;;;;;;;0.67;0.67;;;;;21.51;49.33;98757.91;4895624;28;102457;-84
2022/09/03 07:23:28;;;;;;;;;0.67;0.67;;;;;21.52;49.32;98754.06;4896161;28;102518;-84
2022/09/03 07:25:56;;;;;;;;;1.33;0.67;;;;;21.53;48.95;98750.19;4895374;28;104012;-84
2022/09/03 07:28:23;;;;;;;;;0.67;0.67;;;;;21.53;49.32;98750.19;4895282;28;102190;-83
2022/09/03 07:30:51;;;;;;;;;0.33;0.33;;;;;21.53;49.39;98750.19;4899920;28;102260;-84
2022/09/03 07:33:18;;;;;;;;;0.67;0.67;;;;;21.54;49.01;98740.84;4899724;28;102641;-84
2022/09/03 07:35:45;;;;;;;;;0.67;0.67;;;;;21.54;48.95;98746.34;4891864;28;104350;-84
2022/09/03 07:38:18;;;;;;;;;0.67;0.67;;;;;21.54;49.09;98741.69;4895944;28;102461;-84
2022/09/03 07:40:46;;;;;;;;;1.33;1.00;;;;;21.54;49.41;98749.09;4889046;28;102175;-84
2022/09/03 07:43:13;;;;;;;;;0.67;0.67;;;;;21.54;49.27;98747.19;4897040;28;102167;-84
2022/09/03 07:45:40;;;;;;;;;1.33;1.33;;;;;21.55;49.30;98751.59;4888290;28;103936;-84
2022/09/03 07:48:07;;;;;;;;;1.00;0.67;;;;;21.55;49.18;98753.53;4895238;28;102325;-84
2022/09/03 07:50:38;;;;;;;;;1.00;1.00;;;;;21.56;49.55;98758.75;4897375;28;102540;-84
2022/09/03 07:53:05;;;;;;;;;0.67;0.67;;;;;21.56;49.37;98760.69;4894191;28;102188;-84
2022/09/03 07:55:32;;;;;;;;;0.67;0.67;;;;;21.56;49.17;98755.19;4890393;28;104012;-84
2022/09/03 07:57:59;;;;;;;;;1.00;0.67;;;;;21.57;49.57;98759.59;4894431;28;103166;-84
2022/09/03 08:00:26;;;;;;;;;2.00;1.33;;;;;21.56;49.60;98760.69;4894363;28;102477;-84
2022/09/03 08:02:55;;;;;;;;;1.67;1.67;;;;;21.57;49.08;98752.16;4894055;28;102181;-83
2022/09/03 08:05:22;;;;;;;;;1.00;1.00;;;;;21.58;49.15;98752.97;4898372;28;104077;-84
2022/09/03 08:07:49;;;;;;;;;1.67;1.67;;;;;21.58;49.24;98758.47;4895068;28;102455;-85
2022/09/03 08:10:16;;;;;;;;;1.33;1.33;;;;;21.59;49.48;98749.13;4892259;28;102227;-85
2022/09/03 08:12:43;;;;;;;;;0.67;0.67;;;;;21.58;49.03;98756.56;4893275;28;103922;-85
2022/09/03 08:15:10;;;;;;;;;2.00;2.00;;;;;21.59;49.17;98760.97;4893950;28;104233;-85
2022/09/03 08:17:37;;;;;;;;;1.67;1.33;;;;;21.59;48.93;98754.63;4892106;28;102558;-84
2022/09/03 08:20:04;;;;;;;;;2.00;2.00;;;;;21.60;49.29;98762.63;4891249;28;102478;-84
2022/09/03 08:22:31;;;;;;;;;0.67;0.67;;;;;21.59;49.10;98763.72;4887555;28;102299;-84
2022/09/03 08:24:59;;;;;;;;;1.67;1.67;;;;;21.61;49.26;98763.47;4895970;28;104118;-84
2022/09/03 08:27:26;;;;;;;;;1.67;1.67;;;;;21.60;49.09;98770.88;4889251;28;102862;-84
2022/09/03 08:29:53;;;;;;;;;1.33;1.33;;;;;21.61;49.08;98771.72;4895166;28;102592;-84
2022/09/03 08:32:21;;;;;;;;;0.67;0.67;;;;;21.61;49.46;98757.97;4895556;28;102315;-84
2022/09/03 08:34:49;;;;;;;;;1.00;1.00;;;;;21.63;49.57;98770.34;4908290;28;104185;-84
2022/09/03 08:37:16;;;;;;;;;2.33;1.67;;;;;21.64;48.90;98762.91;4896470;28;102522;-84
2022/09/03 08:39:44;;;;;;;;;1.67;1.67;;;;;21.65;49.53;98773.66;4892758;28;102569;-84
2022/09/03 08:42:29;;;;;;;;;1.00;1.00;;;;;21.65;49.31;98770.09;4892806;28;103118;-84
2022/09/03 08:45:01;;;;;;;;;2.00;1.33;;;;;21.66;49.29;98768.97;4891777;28;108649;-84
2022/09/03 08:47:40;;;;;;;;;1.00;1.00;;;;;21.65;48.93;98764.59;4890283;28;102593;-84
2022/09/03 08:50:23;;;;;;;;;1.67;1.00;;;;;21.65;49.11;98759.06;4891632;28;102374;-84
2022/09/03 08:52:50;;;;;;;;;2.00;2.00;;;;;21.66;49.27;98760.72;4892539;28;102616;-85
2022/09/03 08:55:22;;;;;;;;;2.33;1.67;;;;;21.67;48.98;98756.88;4891490;28;104060;-84
2022/09/03 08:58:10;;;;;;;;;2.33;2.00;;;;;21.67;49.16;98756.88;4894207;28;102292;-85
2022/09/03 09:01:01;;;;;;;;;1.67;1.67;;;;;21.67;49.27;98754.13;4893702;28;103606;-84
2022/09/03 09:03:46;;;;;;;;;1.33;1.33;;;;;21.67;49.12;98751.38;4891787;28;102550;-84
2022/09/03 09:06:16;;;;;;;;;1.33;1.00;;;;;21.69;49.27;98746.44;4882959;28;104228;-85
2022/09/03 09:09:14;;;;;;;;;2.00;2.00;;;;;21.67;49.44;98751.38;4894116;28;102306;-84
2022/09/03 09:12:08;;;;;;;;;1.67;1.67;;;;;21.69;48.92;98746.44;4893352;28;102592;-84
2022/09/03 09:15:04;;;;;;;;;2.33;1.00;;;;;21.70;48.98;98745.34;4897102;28;102402;-84
2022/09/03 09:17:55;;;;;;;;;1.33;1.33;;;;;21.70;49.02;98737.09;4891681;28;112440;-84
2022/09/03 09:20:49;;;;;;;;;1.00;1.00;;;;;21.71;48.81;98738.72;4894784;28;102538;-85
2022/09/03 09:23:24;;;;;;;;;1.00;0.67;;;;;21.73;49.33;98744.78;4892420;28;102167;-84
2022/09/03 09:25:51;;;;;;;;;1.67;1.67;;;;;21.71;49.22;98736.78;4896042;28;102355;-85
2022/09/03 09:28:20;;;;;;;;;1.67;1.67;;;;;21.73;49.20;98736.53;4891945;28;103727;-84
2022/09/03 09:30:50;;;;;;;;;1.67;1.67;;;;;21.73;49.19;98742.03;4895750;28;102344;-85
2022/09/03 09:33:18;;;;;;;;;3.00;3.00;;;;;21.72;48.97;98749.47;4892478;28;102375;-85
2022/09/03 09:35:45;;;;;;;;;2.67;2.67;;;;;21.72;48.98;98746.72;4886689;28;102506;-85
2022/09/03 09:38:12;;;;;;;;;2.00;2.00;;;;;21.73;49.19;98750.28;4892890;28;103836;-84
2022/09/03 09:40:43;;;;;;;;;1.33;1.00;;;;;21.73;48.82;98748.38;4895214;28;102232;-85
2022/09/03 09:43:15;;;;;;;;;1.67;1.67;;;;;21.73;49.21;98744.78;4891392;28;102505;-85
2022/09/03 09:45:43;;;;;;;;;2.67;1.67;;;;;21.73;49.12;98744.78;4896194;28;102456;-85
2022/09/03 09:48:16;;;;;;;;;2.33;2.33;;;;;21.74;48.92;98740.94;4890452;28;104263;-84
2022/09/03 09:50:42;;;;;;;;;1.00;1.00;;;;;21.74;49.16;98757.47;4896248;28;102009;-84
2022/09/03 09:53:16;;;;;;;;;1.33;1.00;;;;;21.75;48.92;98759.09;4894062;28;102398;-84
2022/09/03 09:56:01;;;;;;;;;2.33;2.00;;;;;21.76;48.74;98769.00;4906492;28;102660;-85
2022/09/03 09:58:31;;;;;;;;;1.33;1.33;;;;;21.76;49.16;98771.78;4875626;28;109816;-84
2022/09/03 10:01:13;;;;;;;;;3.33;2.67;;;;;21.73;49.30;98761.31;4894439;28;103060;-84
2022/09/03 10:03:47;;;;;;;;;2.33;1.67;;;;;21.76;48.79;98763.50;4892922;28;102426;-84
2022/09/03 10:09:16;;;;;;;;;2.67;1.67;;;;;21.76;49.12;98761.59;4890520;28;108687;-85
2022/09/03 10:12:13;;;;;;;;;1.67;1.00;;;;;21.76;49.30;98752.50;4888363;28;102203;-84
2022/09/03 10:14:54;;;;;;;;;1.67;1.67;;;;;21.75;48.90;98753.59;4888698;28;102044;-84
2022/09/03 10:17:43;;;;;;;;;2.67;2.00;;;;;21.75;48.83;98759.94;4892492;28;102840;-84
2022/09/03 10:20:26;;;;;;;;;2.33;2.33;;;;;21.76;49.20;98752.50;4886140;28;108738;-85
2022/09/03 10:22:55;;;;;;;;;2.00;2.00;;;;;21.76;48.69;98750.56;4891855;28;102273;-84
2022/09/03 10:25:40;;;;;;;;;1.67;1.67;;;;;21.75;48.80;98754.41;4889249;28;102513;-84
2022/09/03 10:28:08;;;;;;;;;2.00;2.00;;;;;21.76;48.58;98756.09;4871688;28;104529;-84
2022/09/03 10:30:47;;;;;;;;;0.67;0.67;;;;;21.76;48.76;98750.56;4879056;28;104454;-84
2022/09/03 10:33:19;;;;;;;;;3.33;1.67;;;;;21.78;49.13;98758.56;4890705;28;102532;-84
2022/09/03 10:35:51;;;;;;;;;2.33;2.33;;;;;21.78;49.03;98747.56;4890708;28;102692;-84
2022/09/03 10:38:35;;;;;;;;;2.33;1.67;;;;;21.79;48.82;98754.72;4893533;28;102239;-85
2022/09/03 10:41:31;;;;;;;;;1.67;1.67;;;;;21.79;48.83;98760.25;4889518;28;108870;-84
2022/09/03 10:44:47;;;;;;;;;2.00;2.00;;;;;21.79;48.73;98754.72;4862705;28;102476;-83
2022/09/03 10:47:37;;;;;;;;;2.00;2.00;;;;;21.79;48.86;98760.25;4788621;29;102493;-84
2022/09/03 10:50:07;;;;;;;;;2.33;2.33;;;;;21.80;48.98;98756.38;4884239;28;102871;-84
2022/09/03 10:52:40;;;;;;;;;1.67;1.67;;;;;21.78;49.03;98756.66;4882482;28;104119;-84
2022/09/03 10:55:43;;;;;;;;;1.67;1.67;;;;;21.78;48.94;98759.41;4890212;28;102206;-84
2022/09/03 10:58:26;;;;;;;;;1.33;1.33;;;;;21.77;48.88;98757.75;4875080;28;103242;-84
2022/09/03 11:00:57;;;;;;;;;1.67;1.00;;;;;21.77;49.05;98759.66;4892284;28;102190;-85
2022/09/03 11:03:48;;;;;;;;;1.67;1.67;;;;;21.78;49.01;98758.56;4889342;28;109299;-84
2022/09/03 11:06:41;;;;;;;;;2.33;2.33;;;;;21.79;48.97;98757.50;4890506;28;102570;-84
2022/09/03 11:09:16;;;;;;;;;1.67;1.67;;;;;21.78;49.23;98753.06;4889151;28;102295;-84
2022/09/03 11:11:46;;;;;;;;;0.67;0.67;;;;;21.78;49.10;98753.06;4890500;28;102551;-85
2022/09/03 11:14:15;;;;;;;;;1.67;1.67;;;;;21.78;49.23;98748.41;4889431;28;104069;-84
2022/09/03 11:16:47;;;;;;;;;2.00;2.00;;;;;21.80;48.92;98756.38;4887253;28;102330;-84
2022/09/03 11:19:19;;;;;;;;;1.33;1.33;;;;;21.78;48.91;98747.56;4876503;28;102788;-84
2022/09/03 11:21:46;;;;;;;;;1.67;1.67;;;;;21.80;48.89;98750.84;4879711;28;102324;-84
2022/09/03 11:24:23;;;;;;;;;2.00;2.00;;;;;21.81;49.30;98752.53;4871434;28;103857;-84
2022/09/03 11:26:56;;;;;;;;;2.33;1.67;;;;;21.81;49.24;98745.09;4887897;28;102245;-84
2022/09/03 11:29:37;;;;;;;;;2.00;2.00;;;;;21.82;48.81;98751.44;4888204;28;103550;-84
2022/09/03 11:32:10;;;;;;;;;1.33;1.33;;;;;21.81;48.96;98752.53;4891005;28;102609;-84
2022/09/03 11:34:50;;;;;;;;;2.67;2.00;;;;;21.81;49.05;98742.34;4886588;28;104085;-85
2022/09/03 11:37:23;;;;;;;;;0.67;0.67;;;;;21.81;48.92;98747.03;4890660;28;105522;-85
2022/09/03 11:39:57;;;;;;;;;2.67;2.33;;;;;21.81;49.17;98741.50;4893138;28;102173;-84
2022/09/03 11:42:29;;;;;;;;;1.67;1.67;;;;;21.82;49.14;98726.66;4896511;28;102329;-84
2022/09/03 11:45:19;;;;;;;;;2.00;2.00;;;;;21.82;48.72;98729.41;4887231;28;108922;-85
2022/09/03 11:47:46;;;;;;;;;1.67;0.67;;;;;21.83;48.96;98728.31;4888173;28;102990;-83
2022/09/03 11:50:23;;;;;;;;;1.00;1.00;;;;;21.81;49.09;98723.06;4896795;28;102608;-84
2022/09/03 11:52:53;;;;;;;;;1.67;1.67;;;;;21.83;48.83;98721.97;4896065;28;102221;-83
2022/09/03 11:55:50;;;;;;;;;1.67;1.67;;;;;21.82;49.23;98715.66;4895946;28;104597;-84
2022/09/03 11:58:24;;;;;;;;;2.00;1.67;;;;;21.82;48.78;98718.41;4901251;28;102449;-84